Terminal Aerodrome Forecast
Issued by NWS

Home | Current Version | Previous Version | Text Only | Print | Product List | Glossary On
Versions: 1 2 3 4 5 6 7 8 9 10 11 12 13 14 15
000
FTUS45 KRIW 191738
TAFCPR
TAF
KCPR 191738Z 1918/2018 22017G27KT P6SM BKN250 WS015/22045KT
     FM192100 21020KT P6SM SCT150 BKN250 WS012/22040KT
     FM200100 25010KT P6SM BKN120
     FM200700 01009KT P6SM SCT030 BKN100
     FM201000 04009KT 6SM -SN OVC016
     FM201500 04004KT 2SM -SN OVC010=

USA.gov is the U.S. government's official web portal to all federal, state and local government web resources and services.